Sanhu Dao, China
Current Conditions -  °F | °C
As of 11:00 AM on Thursday 23 Oct 2014 (Local Time) from ZJSY Reporting Station
Clear Clear  
Wind Chill: 88°   Ceiling: Unl
Heat Index: 96°   Visibility: 6mi
Dew Point: 73°   Wind: 13mph
Humidity: 62%   Direction: 100°E
Pressure: 29.97"   Gusts: NA
Location:  16.53°N, 111.62°E
Report Text: ZJSY 230300Z 10006MPS 9000 NSC 31/23 Q1015 NOSIG
Loading
Personal Weather Stations






























Interactive Weather Map
Tropical Storm Tracking
New forecast layout! Learn more

10-Day Weather Forecast

Advertisements
Track Severe Weather on mobile